Burlington, New Jersey
Current Conditions -  °F | °C
As of 4:54 PM on Tuesday 21 Oct 2014 (Local Time) from KPNE Reporting Station
Broken Clouds Broken Clouds  
Wind Chill: 68°   Ceiling: 5000
Heat Index: 68°   Visibility: 10mi
Dew Point: 46°   Wind: 0mph
Humidity: 45%   Direction: NA
Pressure: 29.82"   Gusts: NA
Location:  40.08°N, 74.86°W
Report Text: KPNE 212054Z 00000KT 10SM BKN050 BKN075 20/08 A2982 RMK AO2 SLP097 T02000078 56003 $
Loading
Personal Weather Stations






























Interactive Weather Map
Tropical Storm Tracking
New forecast layout! Learn more

10-Day Weather Forecast

Advertisements
Track Severe Weather on mobile